createdAt,value
2023-03-01T00:01:34.355Z,-0.08
2023-03-01T00:04:01.933Z,-0.02
2023-03-01T00:06:30.331Z,-0.02
2023-03-01T00:08:58.171Z,-0.07
2023-03-01T00:11:28.824Z,0.04
2023-03-01T00:13:59.018Z,0.15
2023-03-01T00:16:35.922Z,0.13
2023-03-01T00:19:04.153Z,0.10
2023-03-01T00:21:31.621Z,0.04
2023-03-01T00:23:59.734Z,0.01
2023-03-01T00:26:28.195Z,-0.06
2023-03-01T00:28:58.477Z,-0.02
2023-03-01T00:31:31.578Z,0.00
2023-03-01T00:34:01.915Z,0.06
2023-03-01T00:36:32.491Z,0.05
2023-03-01T00:39:00.895Z,-0.01
2023-03-01T00:41:28.879Z,-0.05
2023-03-01T00:44:06.219Z,-0.11
2023-03-01T00:46:37.652Z,-0.08
2023-03-01T00:49:05.919Z,-0.05
2023-03-01T00:51:34.072Z,-0.20
2023-03-01T00:54:03.457Z,-0.13
2023-03-01T00:56:32.213Z,-0.14
2023-03-01T00:59:00.088Z,-0.21
2023-03-01T01:01:33.341Z,-0.15
2023-03-01T01:04:04.505Z,-0.06
2023-03-01T01:06:36.554Z,-0.10
2023-03-01T01:09:06.626Z,-0.10
2023-03-01T01:11:36.587Z,-0.19
2023-03-01T01:14:05.463Z,-0.17
2023-03-01T01:16:33.419Z,-0.30
2023-03-01T01:19:02.115Z,-0.33
2023-03-01T01:21:31.047Z,-0.25
2023-03-01T01:23:59.588Z,-0.21
2023-03-01T01:26:30.687Z,-0.20
2023-03-01T01:28:59.368Z,-0.32
2023-03-01T01:31:29.450Z,-0.49
2023-03-01T01:33:58.940Z,-0.33
2023-03-01T01:36:26.466Z,-0.41
2023-03-01T01:38:54.628Z,-0.39
2023-03-01T01:41:23.057Z,-0.25
2023-03-01T01:44:21.465Z,-0.14
2023-03-01T01:47:00.122Z,-0.11
2023-03-01T01:49:43.202Z,-0.06
2023-03-01T01:52:22.146Z,-0.19
2023-03-01T01:54:49.598Z,-0.15
2023-03-01T01:57:22.700Z,-0.25
2023-03-01T01:59:56.185Z,-0.25
2023-03-01T02:02:24.610Z,-0.25
2023-03-01T02:05:04.904Z,-0.26
2023-03-01T02:07:32.684Z,-0.46
2023-03-01T02:10:00.327Z,-0.46
2023-03-01T02:12:28.177Z,-0.57
2023-03-01T02:14:56.206Z,-0.55
2023-03-01T02:17:24.152Z,-0.68
2023-03-01T02:20:21.847Z,-0.72
2023-03-01T02:22:51.435Z,-1.06
2023-03-01T02:25:29.519Z,-1.07
2023-03-01T02:28:04.612Z,-0.93
2023-03-01T02:30:34.112Z,-0.97
2023-03-01T02:33:04.207Z,-1.21
2023-03-01T02:35:35.594Z,-1.21
2023-03-01T02:38:04.765Z,-1.36
2023-03-01T02:40:34.781Z,-1.18
2023-03-01T02:43:09.502Z,-1.22
2023-03-01T02:45:36.887Z,-1.12
2023-03-01T02:48:04.804Z,-1.35
2023-03-01T02:50:32.315Z,-1.34
2023-03-01T02:53:34.298Z,-1.24
2023-03-01T02:56:02.715Z,-1.39
2023-03-01T02:58:30.440Z,-1.42
2023-03-01T03:00:58.267Z,-1.45
2023-03-01T03:03:27.269Z,-1.50
2023-03-01T03:05:55.328Z,-1.51
2023-03-01T03:08:25.553Z,-1.47
2023-03-01T03:10:54.323Z,-1.45
2023-03-01T03:13:23.377Z,-1.49
2023-03-01T03:15:51.887Z,-1.35
2023-03-01T03:18:20.124Z,-1.30
2023-03-01T03:20:47.703Z,-1.27
2023-03-01T03:23:15.388Z,-1.24
2023-03-01T03:25:42.928Z,-1.21
2023-03-01T03:28:10.993Z,-1.10
2023-03-01T03:30:41.235Z,-0.99
2023-03-01T03:33:12.966Z,-1.09
2023-03-01T03:35:49.551Z,-0.94
2023-03-01T03:38:20.472Z,-0.95
2023-03-01T03:40:51.024Z,-0.85
2023-03-01T03:43:21.309Z,-0.84
2023-03-01T03:45:51.161Z,-0.89
2023-03-01T03:48:19.791Z,-0.71
2023-03-01T03:50:55.545Z,-0.65
2023-03-01T03:53:26.351Z,-0.54
2023-03-01T03:55:55.103Z,-0.41
2023-03-01T03:58:24.443Z,-0.30
2023-03-01T04:00:54.773Z,-0.52
2023-03-01T04:03:22.494Z,-0.57
2023-03-01T04:05:51.946Z,-0.54
2023-03-01T04:08:22.397Z,-0.90
2023-03-01T04:10:52.449Z,-1.43
2023-03-01T04:13:24.212Z,-1.70
2023-03-01T04:15:55.871Z,-1.45
2023-03-01T04:18:26.839Z,-1.11
2023-03-01T04:20:56.712Z,-1.05
2023-03-01T04:23:24.559Z,-0.94
2023-03-01T04:25:58.184Z,-0.84
2023-03-01T04:28:35.554Z,-0.76
2023-03-01T04:31:15.578Z,-0.69
2023-03-01T04:33:48.421Z,-0.65
2023-03-01T04:36:17.887Z,-0.65
2023-03-01T04:38:49.244Z,-0.74
2023-03-01T04:41:22.027Z,-0.90
2023-03-01T04:43:50.122Z,-0.73
2023-03-01T04:46:20.836Z,-0.65
2023-03-01T04:48:48.664Z,-0.70
2023-03-01T04:51:17.151Z,-0.60
2023-03-01T04:53:45.525Z,-0.50
2023-03-01T04:56:17.253Z,-0.48
2023-03-01T04:58:45.599Z,-0.49
2023-03-01T05:01:18.863Z,-0.20
2023-03-01T05:03:48.609Z,-0.19
2023-03-01T05:06:18.181Z,-0.23
2023-03-01T05:08:46.351Z,-0.23
2023-03-01T05:11:14.391Z,-0.17
2023-03-01T05:13:42.946Z,-0.09
2023-03-01T05:16:12.878Z,0.01
2023-03-01T05:18:41.749Z,0.09
2023-03-01T05:21:17.487Z,0.19
2023-03-01T05:23:46.358Z,0.26
2023-03-01T05:26:30.484Z,0.34
2023-03-01T05:29:00.640Z,0.48
2023-03-01T05:31:29.294Z,0.55
2023-03-01T05:33:57.101Z,0.64
2023-03-01T05:36:24.607Z,0.76
2023-03-01T05:38:52.361Z,0.62
2023-03-01T05:41:19.914Z,0.60
2023-03-01T05:43:47.388Z,0.63
2023-03-01T05:46:16.559Z,0.83
2023-03-01T05:48:44.962Z,0.74
2023-03-01T05:51:13.354Z,0.85
2023-03-01T05:53:40.978Z,0.89
2023-03-01T05:56:09.008Z,0.94
2023-03-01T05:58:36.599Z,0.90
2023-03-01T06:01:04.197Z,1.13
2023-03-01T06:03:31.765Z,1.24
2023-03-01T06:05:59.974Z,1.14
2023-03-01T06:08:28.660Z,0.98
2023-03-01T06:10:56.402Z,1.10
2023-03-01T06:13:25.004Z,1.02
2023-03-01T06:15:53.267Z,1.05
2023-03-01T06:18:21.084Z,0.95
2023-03-01T06:20:54.966Z,1.17
2023-03-01T06:23:22.515Z,1.31
2023-03-01T06:25:50.659Z,1.23
2023-03-01T06:28:18.224Z,1.27
2023-03-01T06:30:46.300Z,1.24
2023-03-01T06:33:14.405Z,1.33
2023-03-01T06:35:41.958Z,1.53
2023-03-01T06:38:09.543Z,1.44
2023-03-01T06:40:37.041Z,1.51
2023-03-01T06:43:04.782Z,1.60
2023-03-01T06:45:32.367Z,1.66
2023-03-01T06:48:07.420Z,1.87
2023-03-01T06:50:36.928Z,1.94
2023-03-01T06:53:04.734Z,2.04
2023-03-01T06:55:32.519Z,1.98
2023-03-01T06:58:02.078Z,2.07
2023-03-01T07:00:30.439Z,2.07
2023-03-01T07:03:01.042Z,2.16
2023-03-01T07:05:29.319Z,2.10
2023-03-01T07:07:57.607Z,2.05
2023-03-01T07:10:25.661Z,2.19
2023-03-01T07:12:57.040Z,2.23
2023-03-01T07:15:24.881Z,2.25
2023-03-01T07:17:52.555Z,2.23
2023-03-01T07:20:26.735Z,2.51
2023-03-01T07:22:56.089Z,2.52
2023-03-01T07:25:23.981Z,2.55
2023-03-01T07:27:52.967Z,2.87
2023-03-01T07:30:21.814Z,2.99
2023-03-01T07:32:49.795Z,2.94
2023-03-01T07:35:17.556Z,2.98
2023-03-01T07:37:45.469Z,3.04
2023-03-01T07:40:13.900Z,2.94
2023-03-01T07:42:41.590Z,2.94
2023-03-01T07:45:09.440Z,2.96
2023-03-01T07:47:37.335Z,2.77
2023-03-01T07:50:05.615Z,2.60
2023-03-01T07:52:33.533Z,2.51
2023-03-01T07:55:01.224Z,2.73
2023-03-01T07:57:30.599Z,2.38
2023-03-01T07:59:58.151Z,2.48
2023-03-01T08:02:25.652Z,2.52
2023-03-01T08:04:53.269Z,2.47
2023-03-01T08:07:20.830Z,2.56
2023-03-01T08:09:48.521Z,2.54
2023-03-01T08:12:17.639Z,2.43
2023-03-01T08:14:45.385Z,2.63
2023-03-01T08:17:15.576Z,2.80
2023-03-01T08:19:44.546Z,2.86
2023-03-01T08:22:12.330Z,2.92
2023-03-01T08:24:39.932Z,2.79
2023-03-01T08:27:07.477Z,2.75
2023-03-01T08:29:35.362Z,2.66
2023-03-01T08:32:03.198Z,2.63
2023-03-01T08:34:32.455Z,2.44
2023-03-01T08:36:59.988Z,2.61
2023-03-01T08:39:27.516Z,2.60
2023-03-01T08:41:55.337Z,2.55
2023-03-01T08:44:22.964Z,2.61
2023-03-01T08:46:53.500Z,2.63
2023-03-01T08:49:21.992Z,2.83
2023-03-01T08:51:49.997Z,2.81
2023-03-01T08:54:23.070Z,2.72
2023-03-01T08:56:51.044Z,2.65
2023-03-01T08:59:18.997Z,2.65
2023-03-01T09:01:46.743Z,2.60
2023-03-01T09:04:16.201Z,2.62
2023-03-01T09:06:44.493Z,2.54
2023-03-01T09:09:17.461Z,2.69
2023-03-01T09:11:47.674Z,2.78
2023-03-01T09:14:15.632Z,2.72
2023-03-01T09:16:43.948Z,2.78
2023-03-01T09:19:12.435Z,2.77
2023-03-01T09:21:41.250Z,2.86
2023-03-01T09:24:15.996Z,3.00
2023-03-01T09:26:48.857Z,2.73
2023-03-01T09:29:18.280Z,3.06
2023-03-01T09:31:45.948Z,3.12
2023-03-01T09:34:16.660Z,3.02
2023-03-01T09:36:44.403Z,3.00
2023-03-01T09:39:11.932Z,3.09
2023-03-01T09:42:03.658Z,3.23
2023-03-01T09:44:53.291Z,3.28
2023-03-01T09:47:28.040Z,3.32
2023-03-01T09:50:20.018Z,3.37
2023-03-01T09:53:06.122Z,3.43
2023-03-01T09:55:40.855Z,3.45
2023-03-01T09:58:32.212Z,3.65
2023-03-01T10:01:11.269Z,3.59
2023-03-01T10:03:46.664Z,3.60
2023-03-01T10:06:34.033Z,3.58
2023-03-01T10:09:17.378Z,3.59
2023-03-01T10:11:50.108Z,3.53
2023-03-01T10:14:38.513Z,3.60
2023-03-01T10:17:14.385Z,3.37
2023-03-01T10:19:45.075Z,3.49
2023-03-01T10:22:22.667Z,3.59
2023-03-01T10:24:53.271Z,3.43
2023-03-01T10:27:25.218Z,3.54
2023-03-01T10:30:05.390Z,3.62
2023-03-01T10:32:33.359Z,3.42
2023-03-01T10:35:00.914Z,3.40
2023-03-01T10:37:31.043Z,3.36
2023-03-01T10:40:09.446Z,3.28
2023-03-01T10:42:39.480Z,3.33
2023-03-01T10:45:28.477Z,3.56
2023-03-01T10:48:08.136Z,3.42
2023-03-01T10:50:37.650Z,3.29
2023-03-01T10:53:06.518Z,3.22
2023-03-01T10:55:39.909Z,3.33
2023-03-01T10:58:27.669Z,3.44
2023-03-01T11:01:01.842Z,3.25
2023-03-01T11:03:36.057Z,3.34
2023-03-01T11:06:12.577Z,3.41
2023-03-01T11:08:48.679Z,3.36
2023-03-01T11:11:30.823Z,3.26
2023-03-01T11:14:27.594Z,3.43
2023-03-01T11:17:06.678Z,3.40
2023-03-01T11:19:34.796Z,3.37
2023-03-01T11:22:17.987Z,3.28
2023-03-01T11:24:57.343Z,3.39
2023-03-01T11:27:34.476Z,3.39
2023-03-01T11:30:09.489Z,3.40
2023-03-01T11:33:00.164Z,3.56
2023-03-01T11:35:30.260Z,3.48
2023-03-01T11:38:24.834Z,3.57
2023-03-01T11:41:19.757Z,3.68
2023-03-01T11:43:56.310Z,3.59
2023-03-01T11:46:53.983Z,3.60
2023-03-01T11:50:00.336Z,3.59
2023-03-01T11:52:56.874Z,3.59
2023-03-01T11:56:02.139Z,3.53
2023-03-01T11:59:01.068Z,3.53
2023-03-01T12:01:56.575Z,3.39
2023-03-01T12:04:42.682Z,3.23
2023-03-01T12:07:29.143Z,3.33
2023-03-01T12:10:44.307Z,3.34
2023-03-01T12:13:39.698Z,3.28
2023-03-01T12:16:38.430Z,3.28
2023-03-01T12:19:33.470Z,3.22
2023-03-01T12:22:27.513Z,3.22
2023-03-01T12:25:23.461Z,3.28
2023-03-01T12:28:21.204Z,3.21
2023-03-01T12:31:11.446Z,3.07
2023-03-01T12:34:03.577Z,3.16
2023-03-01T12:37:03.542Z,3.16
2023-03-01T12:39:51.140Z,3.01
2023-03-01T12:42:44.367Z,2.98
2023-03-01T12:45:36.641Z,2.92
2023-03-01T12:48:19.405Z,2.84
2023-03-01T12:50:55.386Z,2.82
2023-03-01T12:53:26.056Z,2.73
2023-03-01T12:55:57.472Z,2.73
2023-03-01T12:58:56.814Z,2.79
2023-03-01T13:01:42.612Z,2.67
2023-03-01T13:04:19.999Z,2.71
2023-03-01T13:07:26.688Z,2.74
2023-03-01T13:10:02.877Z,2.66
2023-03-01T13:12:51.638Z,2.66
2023-03-01T13:15:25.333Z,2.54
2023-03-01T13:18:00.676Z,2.53
2023-03-01T13:20:54.711Z,2.47
2023-03-01T13:23:22.585Z,2.36
2023-03-01T13:26:12.922Z,2.47
2023-03-01T13:28:46.369Z,2.16
2023-03-01T13:31:16.942Z,2.26
2023-03-01T13:33:50.728Z,2.16
2023-03-01T13:36:31.128Z,2.23
2023-03-01T13:39:01.730Z,2.10
2023-03-01T13:41:44.512Z,2.16
2023-03-01T13:44:21.269Z,2.05
2023-03-01T13:46:49.929Z,1.86
2023-03-01T13:49:24.255Z,1.88
2023-03-01T13:51:52.674Z,1.78
2023-03-01T13:54:30.690Z,1.78
2023-03-01T13:57:01.080Z,1.75
2023-03-01T13:59:30.659Z,1.65
2023-03-01T14:02:00.981Z,1.74
2023-03-01T14:04:37.079Z,1.77
2023-03-01T14:07:25.718Z,1.77
2023-03-01T14:09:56.496Z,1.62
2023-03-01T14:12:51.333Z,1.62
2023-03-01T14:15:36.136Z,1.54
2023-03-01T14:18:07.511Z,1.58
2023-03-01T14:20:41.442Z,1.56
2023-03-01T14:23:14.327Z,1.82
2023-03-01T14:25:58.594Z,1.63
2023-03-01T14:28:30.009Z,1.47
2023-03-01T14:30:59.875Z,1.36
2023-03-01T14:33:29.109Z,1.33
2023-03-01T14:36:08.658Z,1.40
2023-03-01T14:38:39.166Z,1.25
2023-03-01T14:41:20.224Z,1.30
2023-03-01T14:43:52.694Z,1.19
2023-03-01T14:46:37.864Z,1.29
2023-03-01T14:49:20.504Z,1.21
2023-03-01T14:52:06.695Z,1.13
2023-03-01T14:54:34.172Z,1.00
2023-03-01T14:57:02.671Z,0.88
2023-03-01T14:59:30.574Z,0.95
2023-03-01T15:01:59.881Z,0.94
2023-03-01T15:04:32.457Z,0.94
2023-03-01T15:07:07.923Z,0.84
2023-03-01T15:09:38.277Z,0.84
2023-03-01T15:12:30.880Z,1.08
2023-03-01T15:15:04.694Z,0.97
2023-03-01T15:17:40.804Z,0.94
2023-03-01T15:20:19.059Z,0.95
2023-03-01T15:22:50.040Z,0.78
2023-03-01T15:25:29.689Z,0.78
2023-03-01T15:28:00.905Z,0.65
2023-03-01T15:30:30.863Z,0.64
2023-03-01T15:33:20.763Z,0.75
2023-03-01T15:35:54.542Z,0.57
2023-03-01T15:38:39.724Z,0.68
2023-03-01T15:41:28.035Z,0.52
2023-03-01T15:43:57.030Z,0.49
2023-03-01T15:46:31.276Z,0.49
2023-03-01T15:49:21.531Z,0.48
2023-03-01T15:51:50.124Z,0.34
2023-03-01T15:54:24.041Z,0.30
2023-03-01T15:56:53.612Z,0.22
2023-03-01T15:59:23.464Z,0.23
2023-03-01T16:01:52.366Z,0.32
2023-03-01T16:04:28.394Z,0.29
2023-03-01T16:06:56.517Z,0.25
2023-03-01T16:09:25.484Z,0.27
2023-03-01T16:11:54.652Z,0.32
2023-03-01T16:14:23.608Z,0.38
2023-03-01T16:16:53.659Z,0.39
2023-03-01T16:19:30.423Z,0.36
2023-03-01T16:21:58.071Z,0.43
2023-03-01T16:24:31.456Z,0.38
2023-03-01T16:27:00.760Z,0.43
2023-03-01T16:29:31.682Z,0.37
2023-03-01T16:32:06.634Z,0.39
2023-03-01T16:34:34.546Z,0.31
2023-03-01T16:37:04.559Z,0.31
2023-03-01T16:39:36.227Z,0.17
2023-03-01T16:42:03.979Z,0.15
2023-03-01T16:44:31.653Z,0.16
2023-03-01T16:46:59.246Z,0.11
2023-03-01T16:49:26.752Z,0.14
2023-03-01T16:51:57.402Z,0.20
2023-03-01T16:54:24.935Z,0.03
2023-03-01T16:56:52.615Z,0.02
2023-03-01T16:59:31.753Z,-0.09
2023-03-01T17:01:59.516Z,-0.17
2023-03-01T17:04:27.306Z,-0.01
2023-03-01T17:06:55.148Z,-0.01
2023-03-01T17:09:23.383Z,0.02
2023-03-01T17:11:51.158Z,-0.04
2023-03-01T17:14:18.930Z,-0.02
2023-03-01T17:16:46.658Z,0.02
2023-03-01T17:19:18.898Z,0.01
2023-03-01T17:21:47.256Z,0.07
2023-03-01T17:24:15.124Z,0.07
2023-03-01T17:26:42.799Z,0.12
2023-03-01T17:29:10.563Z,0.06
2023-03-01T17:31:40.959Z,0.03
2023-03-01T17:34:09.583Z,-0.01
2023-03-01T17:36:45.012Z,0.03
2023-03-01T17:39:12.662Z,-0.02
2023-03-01T17:41:40.294Z,0.01
2023-03-01T17:44:07.866Z,0.00
2023-03-01T17:46:35.588Z,0.01
2023-03-01T17:49:04.035Z,0.02
2023-03-01T17:51:31.797Z,-0.02
2023-03-01T17:53:59.675Z,0.06
2023-03-01T17:56:27.438Z,0.09
2023-03-01T17:58:55.394Z,0.13
2023-03-01T18:01:24.029Z,-0.06
2023-03-01T18:03:53.372Z,0.19
2023-03-01T18:06:23.424Z,0.20
2023-03-01T18:08:51.159Z,0.20
2023-03-01T18:11:20.090Z,0.24
2023-03-01T18:13:48.133Z,0.27
2023-03-01T18:16:18.031Z,0.32
2023-03-01T18:18:46.000Z,0.30
2023-03-01T18:21:14.310Z,0.35
2023-03-01T18:23:42.179Z,0.38
2023-03-01T18:26:13.321Z,0.44
2023-03-01T18:28:41.072Z,0.45
2023-03-01T18:31:13.174Z,0.48
2023-03-01T18:33:41.255Z,0.46
2023-03-01T18:36:19.059Z,0.67
2023-03-01T18:38:47.261Z,0.59
2023-03-01T18:41:15.136Z,0.49
2023-03-01T18:43:42.698Z,0.50
2023-03-01T18:46:10.803Z,0.46
2023-03-01T18:48:39.101Z,0.47
2023-03-01T18:51:16.859Z,0.55
2023-03-01T18:53:44.921Z,0.33
2023-03-01T18:56:13.563Z,0.39
2023-03-01T18:58:43.370Z,0.41
2023-03-01T19:01:19.305Z,0.44
2023-03-01T19:03:47.660Z,0.39
2023-03-01T19:06:16.728Z,0.33
2023-03-01T19:11:46.531Z,0.49
2023-03-01T19:14:14.787Z,0.38
2023-03-01T19:17:17.611Z,0.30
2023-03-01T19:19:52.263Z,0.34
2023-03-01T19:22:19.850Z,0.40
2023-03-01T19:24:47.424Z,0.26
2023-03-01T19:27:15.210Z,0.33
2023-03-01T19:29:42.947Z,0.36
2023-03-01T19:32:10.831Z,0.35
2023-03-01T19:34:40.950Z,0.34
2023-03-01T19:37:10.048Z,0.34
2023-03-01T19:39:38.730Z,0.37
2023-03-01T19:42:06.869Z,0.37
2023-03-01T19:44:34.571Z,0.40
2023-03-01T19:47:02.386Z,0.39
2023-03-01T19:49:30.569Z,0.39
2023-03-01T19:51:58.176Z,0.38
2023-03-01T19:54:28.740Z,0.41
2023-03-01T19:56:56.465Z,0.40
2023-03-01T19:59:28.085Z,0.32
2023-03-01T20:01:56.432Z,0.33
2023-03-01T20:04:30.859Z,0.34
2023-03-01T20:06:58.709Z,0.28
2023-03-01T20:09:26.383Z,0.27
2023-03-01T20:11:54.005Z,0.20
2023-03-01T20:14:23.899Z,0.15
2023-03-01T20:16:52.900Z,0.14
2023-03-01T20:19:22.099Z,0.11
2023-03-01T20:21:50.138Z,0.12
2023-03-01T20:24:18.986Z,0.16
2023-03-01T20:26:46.785Z,0.18
2023-03-01T20:29:14.490Z,0.13
2023-03-01T20:31:42.940Z,0.21
2023-03-01T20:34:10.757Z,0.23
2023-03-01T20:36:39.660Z,0.22
2023-03-01T20:39:07.899Z,0.26
2023-03-01T20:41:35.587Z,0.25
2023-03-01T20:44:04.746Z,0.21
2023-03-01T20:46:34.305Z,0.20
2023-03-01T20:49:02.932Z,0.20
2023-03-01T20:51:31.067Z,0.14
2023-03-01T20:53:58.740Z,0.09
2023-03-01T20:56:27.506Z,0.13
2023-03-01T20:59:05.423Z,0.23
2023-03-01T21:01:33.115Z,0.10
2023-03-01T21:04:00.845Z,0.07
2023-03-01T21:06:29.177Z,0.01
2023-03-01T21:08:56.940Z,0.01
2023-03-01T21:11:27.922Z,-0.02
2023-03-01T21:13:56.721Z,-0.04
2023-03-01T21:16:25.283Z,-0.04
2023-03-01T21:18:53.692Z,-0.05
2023-03-01T21:21:23.527Z,-0.07
2023-03-01T21:23:51.293Z,-0.13
2023-03-01T21:26:26.940Z,-0.15
2023-03-01T21:29:01.646Z,-0.20
2023-03-01T21:31:35.422Z,-0.25
2023-03-01T21:34:07.427Z,0.02
2023-03-01T21:36:36.388Z,-0.25
2023-03-01T21:39:06.181Z,-0.30
2023-03-01T21:41:36.587Z,-0.38
2023-03-01T21:44:06.443Z,-0.49
2023-03-01T21:46:37.196Z,-0.50
2023-03-01T21:49:05.338Z,-0.61
2023-03-01T21:51:33.384Z,-0.69
2023-03-01T21:54:04.087Z,-0.75
2023-03-01T21:56:35.369Z,-0.75
2023-03-01T21:59:03.047Z,-0.87
2023-03-01T22:01:31.096Z,-0.85
2023-03-01T22:04:00.929Z,-0.77
2023-03-01T22:06:35.385Z,-0.89
2023-03-01T22:09:09.014Z,-0.84
2023-03-01T22:11:39.775Z,-0.94
2023-03-01T22:14:08.527Z,-1.02
2023-03-01T22:16:37.535Z,-1.07
2023-03-01T22:19:07.375Z,-1.04
2023-03-01T22:21:36.302Z,-0.96
2023-03-01T22:24:04.465Z,-0.97
2023-03-01T22:26:35.224Z,-0.85
2023-03-01T22:29:06.944Z,-0.87
2023-03-01T22:31:35.032Z,-0.88
2023-03-01T22:34:03.127Z,-0.98
2023-03-01T22:36:31.474Z,-1.01
2023-03-01T22:39:02.515Z,-1.06
2023-03-01T22:41:32.210Z,-1.03
2023-03-01T22:43:59.735Z,-1.07
2023-03-01T22:46:28.540Z,-0.97
2023-03-01T22:48:56.934Z,-1.09
2023-03-01T22:51:30.332Z,-1.09
2023-03-01T22:53:58.359Z,-1.16
2023-03-01T22:56:32.321Z,-1.13
2023-03-01T22:59:03.001Z,-1.19
2023-03-01T23:01:31.178Z,-1.22
2023-03-01T23:03:59.553Z,-1.16
2023-03-01T23:06:31.039Z,-1.19
2023-03-01T23:09:01.597Z,-1.17
2023-03-01T23:11:29.824Z,-1.27
2023-03-01T23:13:59.247Z,-1.26
2023-03-01T23:16:27.210Z,-1.32
2023-03-01T23:18:56.314Z,-1.41
2023-03-01T23:21:23.793Z,-1.47
2023-03-01T23:23:51.846Z,-1.56
2023-03-01T23:26:22.571Z,-1.49
2023-03-01T23:28:51.176Z,-1.59
2023-03-01T23:31:19.603Z,-1.55
2023-03-01T23:33:47.507Z,-1.61
2023-03-01T23:36:21.284Z,-1.61
2023-03-01T23:38:50.430Z,-1.43
2023-03-01T23:41:20.633Z,-1.62
2023-03-01T23:43:50.655Z,-1.68
2023-03-01T23:46:19.947Z,-1.79
2023-03-01T23:48:48.831Z,-1.81
2023-03-01T23:51:20.949Z,-1.85
2023-03-01T23:53:57.901Z,-1.85
2023-03-01T23:56:28.567Z,-1.79
2023-03-01T23:58:57.877Z,-1.90
